Skip Navigation Links
NOAA logo - Click to go to the NOAA homepage
NOAA's National Weather Service
Alaska Aviation Weather Unit
  NWS logo - Click to go to the NWS homepage
Left Navbar Graphic     19 AKDT = 03 GMT

   
NOAA is celebrating 200 years of science, service, and stewardship. Visit the NOAA 200th celebration Web site to learn more.
USA.gov is the U.S. Government's official Web portal to all Federal, state and local government Web resources and services.
Facebook
NWS on Facebook

Important Change Regarding the AAWU Web Presence

 

Over the last several months, the AAWU has been working to navigate its webpages to a nationally supported server. Security, as well as other needs, have necessitated the change.  In the process, we have made an effort to enhance the functionality of our website, as well as some of our products. As of June 20, 2017, aawu.arh.noaa.gov will be discontinued. The new AAWU web address is weather.gov/aawu. It is now live and will run in-parallel with the old site until it is discontinued. Please send any feedback or questions regarding the new webpages to nws.ar.aawu.webauthors@noaa.gov.  Thank you for your patience during this time of transition.
AAWU Home :: Display TAF Add Bookmark
METAR PANT 242153Z AUTO 32013KT 10SM CLR 17/04 A3020 RMK AO2 SLP228
 T01670039 TSNO=

METAR PANT 242253Z AUTO 33011KT 10SM CLR 17/04 A3019 RMK AO2 SLP223
     T01670039 TSNO=

METAR PANT 242353Z AUTO 33012G18KT 10SM CLR 17/04 A3018 RMK AO2
 SLP220 T01670039 10172 20139 58011 TSNO=

METAR PANT 250053Z AUTO 30009KT 10SM CLR 17/05 A3017 RMK AO2 SLP217
     T01720050 TSNO=

METAR PANT 250153Z AUTO 31009KT 10SM CLR 16/05 A3016 RMK AO2 SLP212
 T01610050 TSNO=

METAR PANT 250253Z AUTO 30008KT 10SM CLR 16/06 A3015 RMK AO2 SLP210
     T01560056 56010 TSNO=


NOAA's National Weather Service
Alaska Aviation Weather Unit
6930 Sand Lake Road
Anchorage, AK 99502-1845
Disclaimer
Credits
Glossary
Privacy Policy
About Us
Career Opportunities
Contact AAWU Internet Services Site last modified: April, 17th 2012